sensor_id;sensor_type;location;lat;lon;timestamp;temperature;humidity
55836;DHT22;66908;50.988;4.780;2023-02-11T00:01:34;7.40;86.70
55836;DHT22;66908;50.988;4.780;2023-02-11T00:04:01;7.30;87.10
55836;DHT22;66908;50.988;4.780;2023-02-11T00:06:29;7.30;87.00
55836;DHT22;66908;50.988;4.780;2023-02-11T00:08:56;7.30;87.20
55836;DHT22;66908;50.988;4.780;2023-02-11T00:11:23;7.20;87.60
55836;DHT22;66908;50.988;4.780;2023-02-11T00:14:00;7.20;87.50
55836;DHT22;66908;50.988;4.780;2023-02-11T00:16:27;7.20;87.40
55836;DHT22;66908;50.988;4.780;2023-02-11T00:18:54;7.20;87.60
55836;DHT22;66908;50.988;4.780;2023-02-11T00:21:23;7.20;87.70
55836;DHT22;66908;50.988;4.780;2023-02-11T00:23:50;7.20;87.50
55836;DHT22;66908;50.988;4.780;2023-02-11T00:26:22;7.00;88.00
55836;DHT22;66908;50.988;4.780;2023-02-11T00:28:48;7.00;88.40
55836;DHT22;66908;50.988;4.780;2023-02-11T00:31:16;7.00;88.50
55836;DHT22;66908;50.988;4.780;2023-02-11T00:33:42;7.00;88.60
55836;DHT22;66908;50.988;4.780;2023-02-11T00:36:16;7.00;88.00
55836;DHT22;66908;50.988;4.780;2023-02-11T00:38:43;7.00;88.00
55836;DHT22;66908;50.988;4.780;2023-02-11T00:41:10;7.10;88.20
55836;DHT22;66908;50.988;4.780;2023-02-11T00:43:36;7.10;87.70
55836;DHT22;66908;50.988;4.780;2023-02-11T00:46:02;7.00;88.10
55836;DHT22;66908;50.988;4.780;2023-02-11T00:48:28;6.90;88.60
55836;DHT22;66908;50.988;4.780;2023-02-11T00:50:54;7.00;88.50
55836;DHT22;66908;50.988;4.780;2023-02-11T00:53:20;6.90;88.50
55836;DHT22;66908;50.988;4.780;2023-02-11T00:55:46;7.00;88.20
55836;DHT22;66908;50.988;4.780;2023-02-11T00:58:12;6.80;89.20
55836;DHT22;66908;50.988;4.780;2023-02-11T01:00:37;6.90;88.90
55836;DHT22;66908;50.988;4.780;2023-02-11T01:03:03;7.00;88.80
55836;DHT22;66908;50.988;4.780;2023-02-11T01:05:29;7.10;88.30
55836;DHT22;66908;50.988;4.780;2023-02-11T01:07:55;7.10;88.30
55836;DHT22;66908;50.988;4.780;2023-02-11T01:10:22;7.20;87.90
55836;DHT22;66908;50.988;4.780;2023-02-11T01:12:48;7.20;87.60
55836;DHT22;66908;50.988;4.780;2023-02-11T01:15:16;7.10;88.20
55836;DHT22;66908;50.988;4.780;2023-02-11T01:17:42;7.10;88.20
55836;DHT22;66908;50.988;4.780;2023-02-11T01:20:15;6.90;89.10
55836;DHT22;66908;50.988;4.780;2023-02-11T01:22:42;7.00;89.10
55836;DHT22;66908;50.988;4.780;2023-02-11T01:25:08;6.80;89.60
55836;DHT22;66908;50.988;4.780;2023-02-11T01:27:34;6.80;89.80
55836;DHT22;66908;50.988;4.780;2023-02-11T01:30:01;6.80;89.50
55836;DHT22;66908;50.988;4.780;2023-02-11T01:32:27;6.90;89.20
55836;DHT22;66908;50.988;4.780;2023-02-11T01:34:53;6.90;89.50
55836;DHT22;66908;50.988;4.780;2023-02-11T01:37:19;6.80;89.40
55836;DHT22;66908;50.988;4.780;2023-02-11T01:39:45;6.80;89.40
55836;DHT22;66908;50.988;4.780;2023-02-11T01:42:15;6.80;89.70
55836;DHT22;66908;50.988;4.780;2023-02-11T01:44:44;6.80;89.90
55836;DHT22;66908;50.988;4.780;2023-02-11T01:47:13;6.70;89.80
55836;DHT22;66908;50.988;4.780;2023-02-11T01:49:43;6.90;89.50
55836;DHT22;66908;50.988;4.780;2023-02-11T01:52:29;7.10;88.70
55836;DHT22;66908;50.988;4.780;2023-02-11T01:54:59;7.10;88.70
55836;DHT22;66908;50.988;4.780;2023-02-11T01:57:52;7.10;89.10
55836;DHT22;66908;50.988;4.780;2023-02-11T02:00:30;7.00;89.70
55836;DHT22;66908;50.988;4.780;2023-02-11T02:03:16;7.10;89.50
55836;DHT22;66908;50.988;4.780;2023-02-11T02:05:54;7.20;88.80
55836;DHT22;66908;50.988;4.780;2023-02-11T02:08:24;7.20;88.60
55836;DHT22;66908;50.988;4.780;2023-02-11T02:10:54;7.10;89.70
55836;DHT22;66908;50.988;4.780;2023-02-11T02:13:25;7.10;89.80
55836;DHT22;66908;50.988;4.780;2023-02-11T02:15:54;7.30;88.70
55836;DHT22;66908;50.988;4.780;2023-02-11T02:24:57;7.40;88.10
55836;DHT22;66908;50.988;4.780;2023-02-11T02:27:31;7.50;87.60
55836;DHT22;66908;50.988;4.780;2023-02-11T02:35:38;7.60;87.10
55836;DHT22;66908;50.988;4.780;2023-02-11T02:40:51;7.50;87.80
55836;DHT22;66908;50.988;4.780;2023-02-11T02:43:18;7.40;88.40
55836;DHT22;66908;50.988;4.780;2023-02-11T02:45:45;7.40;88.30
55836;DHT22;66908;50.988;4.780;2023-02-11T02:48:31;7.50;88.00
55836;DHT22;66908;50.988;4.780;2023-02-11T02:51:21;7.50;88.20
55836;DHT22;66908;50.988;4.780;2023-02-11T02:56:56;7.60;87.30
55836;DHT22;66908;50.988;4.780;2023-02-11T03:07:22;7.60;87.20
55836;DHT22;66908;50.988;4.780;2023-02-11T03:12:23;7.70;87.40
55836;DHT22;66908;50.988;4.780;2023-02-11T03:14:52;7.70;87.20
55836;DHT22;66908;50.988;4.780;2023-02-11T03:17:18;7.70;87.20
55836;DHT22;66908;50.988;4.780;2023-02-11T03:19:45;7.60;87.90
55836;DHT22;66908;50.988;4.780;2023-02-11T03:22:26;7.70;87.20
55836;DHT22;66908;50.988;4.780;2023-02-11T03:24:53;7.70;86.90
55836;DHT22;66908;50.988;4.780;2023-02-11T03:27:40;7.60;87.80
55836;DHT22;66908;50.988;4.780;2023-02-11T03:30:19;7.70;87.20
55836;DHT22;66908;50.988;4.780;2023-02-11T03:33:08;7.70;87.60
55836;DHT22;66908;50.988;4.780;2023-02-11T03:38:24;7.80;86.80
55836;DHT22;66908;50.988;4.780;2023-02-11T03:40:52;7.80;87.10
55836;DHT22;66908;50.988;4.780;2023-02-11T03:43:25;7.70;87.60
55836;DHT22;66908;50.988;4.780;2023-02-11T03:45:54;7.80;87.60
55836;DHT22;66908;50.988;4.780;2023-02-11T03:48:33;7.80;87.60
55836;DHT22;66908;50.988;4.780;2023-02-11T03:51:02;7.80;87.50
55836;DHT22;66908;50.988;4.780;2023-02-11T03:53:30;7.70;87.60
55836;DHT22;66908;50.988;4.780;2023-02-11T03:55:58;7.70;87.90
55836;DHT22;66908;50.988;4.780;2023-02-11T03:58:25;7.70;88.00
55836;DHT22;66908;50.988;4.780;2023-02-11T04:00:51;7.60;88.50
55836;DHT22;66908;50.988;4.780;2023-02-11T04:03:16;7.50;88.90
55836;DHT22;66908;50.988;4.780;2023-02-11T04:05:43;7.60;89.10
55836;DHT22;66908;50.988;4.780;2023-02-11T04:08:09;7.60;88.90
55836;DHT22;66908;50.988;4.780;2023-02-11T04:10:35;7.70;88.40
55836;DHT22;66908;50.988;4.780;2023-02-11T04:13:01;7.60;88.90
55836;DHT22;66908;50.988;4.780;2023-02-11T04:15:27;7.60;89.20
55836;DHT22;66908;50.988;4.780;2023-02-11T04:17:53;7.50;89.70
55836;DHT22;66908;50.988;4.780;2023-02-11T04:20:19;7.60;89.30
55836;DHT22;66908;50.988;4.780;2023-02-11T04:22:45;7.70;89.10
55836;DHT22;66908;50.988;4.780;2023-02-11T04:25:11;7.80;88.30
55836;DHT22;66908;50.988;4.780;2023-02-11T04:27:37;7.90;88.00
55836;DHT22;66908;50.988;4.780;2023-02-11T04:30:04;7.90;88.00
55836;DHT22;66908;50.988;4.780;2023-02-11T04:32:30;7.90;87.70
55836;DHT22;66908;50.988;4.780;2023-02-11T04:34:56;8.00;87.60
55836;DHT22;66908;50.988;4.780;2023-02-11T04:37:22;7.90;87.80
55836;DHT22;66908;50.988;4.780;2023-02-11T04:39:48;7.80;88.30
55836;DHT22;66908;50.988;4.780;2023-02-11T04:42:14;7.80;88.60
55836;DHT22;66908;50.988;4.780;2023-02-11T04:44:40;7.90;88.00
55836;DHT22;66908;50.988;4.780;2023-02-11T04:47:06;7.90;87.80
55836;DHT22;66908;50.988;4.780;2023-02-11T04:49:31;7.80;88.50
55836;DHT22;66908;50.988;4.780;2023-02-11T04:51:57;7.80;88.80
55836;DHT22;66908;50.988;4.780;2023-02-11T04:54:23;7.80;88.30
55836;DHT22;66908;50.988;4.780;2023-02-11T04:56:49;7.80;88.60
55836;DHT22;66908;50.988;4.780;2023-02-11T04:59:15;7.80;88.80
55836;DHT22;66908;50.988;4.780;2023-02-11T05:01:41;7.80;88.50
55836;DHT22;66908;50.988;4.780;2023-02-11T05:04:07;7.90;88.20
55836;DHT22;66908;50.988;4.780;2023-02-11T05:06:33;7.90;88.00
55836;DHT22;66908;50.988;4.780;2023-02-11T05:08:59;7.90;88.40
55836;DHT22;66908;50.988;4.780;2023-02-11T05:11:25;7.90;88.40
55836;DHT22;66908;50.988;4.780;2023-02-11T05:13:51;7.90;88.40
55836;DHT22;66908;50.988;4.780;2023-02-11T05:16:17;7.90;88.30
55836;DHT22;66908;50.988;4.780;2023-02-11T05:18:44;8.10;87.60
55836;DHT22;66908;50.988;4.780;2023-02-11T05:21:15;8.00;88.00
55836;DHT22;66908;50.988;4.780;2023-02-11T05:23:41;7.80;88.80
55836;DHT22;66908;50.988;4.780;2023-02-11T05:26:07;7.80;89.50
55836;DHT22;66908;50.988;4.780;2023-02-11T05:28:34;7.90;88.80
55836;DHT22;66908;50.988;4.780;2023-02-11T05:31:00;8.00;88.00
55836;DHT22;66908;50.988;4.780;2023-02-11T05:33:26;8.00;87.90
55836;DHT22;66908;50.988;4.780;2023-02-11T05:36:01;7.90;88.70
55836;DHT22;66908;50.988;4.780;2023-02-11T05:38:27;8.00;88.40
55836;DHT22;66908;50.988;4.780;2023-02-11T05:40:53;8.00;88.40
55836;DHT22;66908;50.988;4.780;2023-02-11T05:43:19;7.90;89.20
55836;DHT22;66908;50.988;4.780;2023-02-11T05:45:45;7.90;89.40
55836;DHT22;66908;50.988;4.780;2023-02-11T05:48:11;7.80;89.60
55836;DHT22;66908;50.988;4.780;2023-02-11T05:50:37;7.90;89.40
55836;DHT22;66908;50.988;4.780;2023-02-11T05:53:04;7.80;89.90
55836;DHT22;66908;50.988;4.780;2023-02-11T05:55:30;7.90;89.60
55836;DHT22;66908;50.988;4.780;2023-02-11T05:57:56;7.90;89.20
55836;DHT22;66908;50.988;4.780;2023-02-11T06:00:22;7.90;89.60
55836;DHT22;66908;50.988;4.780;2023-02-11T06:02:48;7.90;90.00
55836;DHT22;66908;50.988;4.780;2023-02-11T06:05:14;7.90;89.50
55836;DHT22;66908;50.988;4.780;2023-02-11T06:07:40;8.00;89.20
55836;DHT22;66908;50.988;4.780;2023-02-11T06:10:07;8.10;89.00
55836;DHT22;66908;50.988;4.780;2023-02-11T06:12:33;8.00;89.40
55836;DHT22;66908;50.988;4.780;2023-02-11T06:14:59;7.90;89.90
55836;DHT22;66908;50.988;4.780;2023-02-11T06:17:25;7.90;89.70
55836;DHT22;66908;50.988;4.780;2023-02-11T06:19:51;7.90;89.60
55836;DHT22;66908;50.988;4.780;2023-02-11T06:22:16;8.00;89.90
55836;DHT22;66908;50.988;4.780;2023-02-11T06:24:42;8.10;89.30
55836;DHT22;66908;50.988;4.780;2023-02-11T06:27:08;8.10;88.80
55836;DHT22;66908;50.988;4.780;2023-02-11T06:29:34;7.90;89.90
55836;DHT22;66908;50.988;4.780;2023-02-11T06:32:00;7.90;90.10
55836;DHT22;66908;50.988;4.780;2023-02-11T06:34:26;7.80;90.30
55836;DHT22;66908;50.988;4.780;2023-02-11T06:36:52;7.80;90.30
55836;DHT22;66908;50.988;4.780;2023-02-11T06:39:18;7.90;90.10
55836;DHT22;66908;50.988;4.780;2023-02-11T06:41:44;7.90;90.30
55836;DHT22;66908;50.988;4.780;2023-02-11T06:44:09;7.90;90.00
55836;DHT22;66908;50.988;4.780;2023-02-11T06:46:37;7.90;90.20
55836;DHT22;66908;50.988;4.780;2023-02-11T06:49:03;7.80;90.40
55836;DHT22;66908;50.988;4.780;2023-02-11T06:51:29;7.80;90.40
55836;DHT22;66908;50.988;4.780;2023-02-11T06:53:55;7.80;90.50
55836;DHT22;66908;50.988;4.780;2023-02-11T06:56:21;7.90;90.30
55836;DHT22;66908;50.988;4.780;2023-02-11T06:58:51;8.00;90.00
55836;DHT22;66908;50.988;4.780;2023-02-11T07:01:19;8.00;89.80
55836;DHT22;66908;50.988;4.780;2023-02-11T07:03:45;8.10;89.70
55836;DHT22;66908;50.988;4.780;2023-02-11T07:06:17;8.10;89.70
55836;DHT22;66908;50.988;4.780;2023-02-11T07:08:44;8.20;89.20
55836;DHT22;66908;50.988;4.780;2023-02-11T07:11:22;8.30;88.90
55836;DHT22;66908;50.988;4.780;2023-02-11T07:13:53;8.20;88.90
55836;DHT22;66908;50.988;4.780;2023-02-11T07:16:20;8.10;89.60
55836;DHT22;66908;50.988;4.780;2023-02-11T07:18:47;8.20;89.40
55836;DHT22;66908;50.988;4.780;2023-02-11T07:21:15;8.20;89.00
55836;DHT22;66908;50.988;4.780;2023-02-11T07:23:41;8.30;88.90
55836;DHT22;66908;50.988;4.780;2023-02-11T07:26:10;8.40;88.60
55836;DHT22;66908;50.988;4.780;2023-02-11T07:28:37;8.40;88.60
55836;DHT22;66908;50.988;4.780;2023-02-11T07:31:20;8.30;89.20
55836;DHT22;66908;50.988;4.780;2023-02-11T07:33:46;8.20;89.30
55836;DHT22;66908;50.988;4.780;2023-02-11T07:36:13;8.30;89.50
55836;DHT22;66908;50.988;4.780;2023-02-11T07:38:39;8.10;90.00
55836;DHT22;66908;50.988;4.780;2023-02-11T07:41:08;8.00;90.40
55836;DHT22;66908;50.988;4.780;2023-02-11T07:43:35;8.10;90.40
55836;DHT22;66908;50.988;4.780;2023-02-11T07:46:13;8.10;90.20
55836;DHT22;66908;50.988;4.780;2023-02-11T07:48:39;8.20;90.10
55836;DHT22;66908;50.988;4.780;2023-02-11T07:51:17;8.20;90.20
55836;DHT22;66908;50.988;4.780;2023-02-11T07:53:43;8.30;90.10
55836;DHT22;66908;50.988;4.780;2023-02-11T07:56:10;8.30;90.00
55836;DHT22;66908;50.988;4.780;2023-02-11T07:58:36;8.10;90.30
55836;DHT22;66908;50.988;4.780;2023-02-11T08:01:08;8.10;90.50
55836;DHT22;66908;50.988;4.780;2023-02-11T08:03:34;8.10;90.60
55836;DHT22;66908;50.988;4.780;2023-02-11T08:06:06;8.10;90.50
55836;DHT22;66908;50.988;4.780;2023-02-11T08:08:32;8.00;90.80
55836;DHT22;66908;50.988;4.780;2023-02-11T08:11:02;8.10;90.70
55836;DHT22;66908;50.988;4.780;2023-02-11T08:13:29;8.30;90.20
55836;DHT22;66908;50.988;4.780;2023-02-11T08:15:56;8.40;90.00
55836;DHT22;66908;50.988;4.780;2023-02-11T08:18:22;8.30;90.30
55836;DHT22;66908;50.988;4.780;2023-02-11T08:20:48;8.30;90.30
55836;DHT22;66908;50.988;4.780;2023-02-11T08:23:13;8.40;90.20
55836;DHT22;66908;50.988;4.780;2023-02-11T08:25:39;8.50;90.00
55836;DHT22;66908;50.988;4.780;2023-02-11T08:28:05;8.40;90.30
55836;DHT22;66908;50.988;4.780;2023-02-11T08:30:31;8.40;90.20
55836;DHT22;66908;50.988;4.780;2023-02-11T08:32:56;8.50;90.00
55836;DHT22;66908;50.988;4.780;2023-02-11T08:35:22;8.50;90.00
55836;DHT22;66908;50.988;4.780;2023-02-11T08:37:48;8.50;90.00
55836;DHT22;66908;50.988;4.780;2023-02-11T08:40:13;8.50;90.00
55836;DHT22;66908;50.988;4.780;2023-02-11T08:42:39;8.50;90.00
55836;DHT22;66908;50.988;4.780;2023-02-11T08:45:06;8.60;89.50
55836;DHT22;66908;50.988;4.780;2023-02-11T08:47:31;8.70;89.20
55836;DHT22;66908;50.988;4.780;2023-02-11T08:49:57;8.60;89.50
55836;DHT22;66908;50.988;4.780;2023-02-11T08:52:23;8.60;89.30
55836;DHT22;66908;50.988;4.780;2023-02-11T08:54:48;8.70;90.00
55836;DHT22;66908;50.988;4.780;2023-02-11T08:57:15;8.70;89.10
55836;DHT22;66908;50.988;4.780;2023-02-11T08:59:41;8.40;90.20
55836;DHT22;66908;50.988;4.780;2023-02-11T09:02:10;8.50;90.10
55836;DHT22;66908;50.988;4.780;2023-02-11T09:04:36;8.60;90.00
55836;DHT22;66908;50.988;4.780;2023-02-11T09:07:02;8.70;89.50
55836;DHT22;66908;50.988;4.780;2023-02-11T09:09:29;8.80;89.00
55836;DHT22;66908;50.988;4.780;2023-02-11T09:11:55;8.90;88.90
55836;DHT22;66908;50.988;4.780;2023-02-11T09:14:23;8.90;88.50
55836;DHT22;66908;50.988;4.780;2023-02-11T09:16:50;8.90;88.90
55836;DHT22;66908;50.988;4.780;2023-02-11T09:19:17;8.80;89.20
55836;DHT22;66908;50.988;4.780;2023-02-11T09:21:42;8.80;89.00
55836;DHT22;66908;50.988;4.780;2023-02-11T09:24:08;8.60;90.00
55836;DHT22;66908;50.988;4.780;2023-02-11T09:26:35;8.70;90.00
55836;DHT22;66908;50.988;4.780;2023-02-11T09:29:02;8.80;89.60
55836;DHT22;66908;50.988;4.780;2023-02-11T09:31:29;8.90;89.20
55836;DHT22;66908;50.988;4.780;2023-02-11T09:34:00;8.90;88.80
55836;DHT22;66908;50.988;4.780;2023-02-11T09:36:28;9.00;88.80
55836;DHT22;66908;50.988;4.780;2023-02-11T09:38:54;8.90;89.40
55836;DHT22;66908;50.988;4.780;2023-02-11T09:44:30;8.80;89.70
55836;DHT22;66908;50.988;4.780;2023-02-11T09:47:33;8.80;90.00
55836;DHT22;66908;50.988;4.780;2023-02-11T09:50:03;8.90;89.60
55836;DHT22;66908;50.988;4.780;2023-02-11T09:52:42;9.00;89.60
55836;DHT22;66908;50.988;4.780;2023-02-11T09:55:21;9.00;89.30
55836;DHT22;66908;50.988;4.780;2023-02-11T09:57:47;9.20;88.70
55836;DHT22;66908;50.988;4.780;2023-02-11T10:00:27;9.20;89.10
55836;DHT22;66908;50.988;4.780;2023-02-11T10:03:20;9.20;89.00
55836;DHT22;66908;50.988;4.780;2023-02-11T10:09:01;9.30;88.20
55836;DHT22;66908;50.988;4.780;2023-02-11T10:11:45;9.10;89.30
55836;DHT22;66908;50.988;4.780;2023-02-11T10:17:32;9.30;89.30
55836;DHT22;66908;50.988;4.780;2023-02-11T10:20:27;9.20;89.60
55836;DHT22;66908;50.988;4.780;2023-02-11T10:22:58;9.30;89.70
55836;DHT22;66908;50.988;4.780;2023-02-11T10:25:32;9.40;88.90
55836;DHT22;66908;50.988;4.780;2023-02-11T10:28:00;9.40;88.90
55836;DHT22;66908;50.988;4.780;2023-02-11T10:30:36;9.40;89.10
55836;DHT22;66908;50.988;4.780;2023-02-11T10:33:11;9.40;89.10
55836;DHT22;66908;50.988;4.780;2023-02-11T10:35:38;9.50;89.20
55836;DHT22;66908;50.988;4.780;2023-02-11T10:38:04;9.60;88.50
55836;DHT22;66908;50.988;4.780;2023-02-11T10:40:31;9.70;88.30
55836;DHT22;66908;50.988;4.780;2023-02-11T10:43:00;9.60;88.40
55836;DHT22;66908;50.988;4.780;2023-02-11T10:45:54;9.60;88.20
55836;DHT22;66908;50.988;4.780;2023-02-11T10:48:47;9.60;88.40
55836;DHT22;66908;50.988;4.780;2023-02-11T10:51:31;9.60;89.00
55836;DHT22;66908;50.988;4.780;2023-02-11T10:56:33;9.60;88.90
55836;DHT22;66908;50.988;4.780;2023-02-11T11:01:52;9.60;89.10
55836;DHT22;66908;50.988;4.780;2023-02-11T11:04:41;9.50;89.30
55836;DHT22;66908;50.988;4.780;2023-02-11T11:07:14;9.50;89.80
55836;DHT22;66908;50.988;4.780;2023-02-11T11:09:53;9.60;89.40
55836;DHT22;66908;50.988;4.780;2023-02-11T11:12:47;9.70;89.10
55836;DHT22;66908;50.988;4.780;2023-02-11T11:15:23;9.80;88.60
55836;DHT22;66908;50.988;4.780;2023-02-11T11:17:50;9.80;88.40
55836;DHT22;66908;50.988;4.780;2023-02-11T11:20:32;9.80;88.30
55836;DHT22;66908;50.988;4.780;2023-02-11T11:23:21;9.80;88.80
55836;DHT22;66908;50.988;4.780;2023-02-11T11:28:28;9.70;89.20
55836;DHT22;66908;50.988;4.780;2023-02-11T11:30:56;9.80;88.70
55836;DHT22;66908;50.988;4.780;2023-02-11T11:33:28;9.50;89.40
55836;DHT22;66908;50.988;4.780;2023-02-11T11:36:19;9.60;90.10
55836;DHT22;66908;50.988;4.780;2023-02-11T11:38:53;9.70;89.50
55836;DHT22;66908;50.988;4.780;2023-02-11T11:41:23;9.90;88.90
55836;DHT22;66908;50.988;4.780;2023-02-11T11:44:01;9.90;88.30
55836;DHT22;66908;50.988;4.780;2023-02-11T11:46:37;10.00;88.00
55836;DHT22;66908;50.988;4.780;2023-02-11T11:54:39;9.80;88.90
55836;DHT22;66908;50.988;4.780;2023-02-11T11:57:16;10.00;88.30
55836;DHT22;66908;50.988;4.780;2023-02-11T11:59:43;10.00;88.40
55836;DHT22;66908;50.988;4.780;2023-02-11T12:05:22;10.10;87.30
55836;DHT22;66908;50.988;4.780;2023-02-11T12:14:27;9.90;88.20
55836;DHT22;66908;50.988;4.780;2023-02-11T12:17:35;9.80;88.50
55836;DHT22;66908;50.988;4.780;2023-02-11T12:28:57;10.00;88.30
55836;DHT22;66908;50.988;4.780;2023-02-11T12:31:35;10.10;88.20
55836;DHT22;66908;50.988;4.780;2023-02-11T12:36:59;9.90;89.10
55836;DHT22;66908;50.988;4.780;2023-02-11T12:39:36;9.90;89.00
55836;DHT22;66908;50.988;4.780;2023-02-11T12:50:14;10.10;88.20
55836;DHT22;66908;50.988;4.780;2023-02-11T12:53:01;10.10;87.80
55836;DHT22;66908;50.988;4.780;2023-02-11T12:55:47;10.20;87.20
55836;DHT22;66908;50.988;4.780;2023-02-11T12:58:20;9.80;88.60
55836;DHT22;66908;50.988;4.780;2023-02-11T13:03:27;9.70;90.00
55836;DHT22;66908;50.988;4.780;2023-02-11T13:06:04;9.70;90.00
55836;DHT22;66908;50.988;4.780;2023-02-11T13:16:19;10.20;87.90
55836;DHT22;66908;50.988;4.780;2023-02-11T13:24:58;10.30;87.40
55836;DHT22;66908;50.988;4.780;2023-02-11T13:32:23;10.10;88.20
55836;DHT22;66908;50.988;4.780;2023-02-11T13:34:52;10.10;88.20
55836;DHT22;66908;50.988;4.780;2023-02-11T13:37:45;10.10;88.30
55836;DHT22;66908;50.988;4.780;2023-02-11T13:42:52;10.20;87.70
55836;DHT22;66908;50.988;4.780;2023-02-11T13:45:31;10.30;87.90
55836;DHT22;66908;50.988;4.780;2023-02-11T13:48:06;10.20;87.90
55836;DHT22;66908;50.988;4.780;2023-02-11T13:50:37;10.30;87.60
55836;DHT22;66908;50.988;4.780;2023-02-11T13:53:05;10.30;87.60
55836;DHT22;66908;50.988;4.780;2023-02-11T13:55:33;9.90;88.50
55836;DHT22;66908;50.988;4.780;2023-02-11T13:58:16;9.70;90.00
55836;DHT22;66908;50.988;4.780;2023-02-11T14:00:46;9.80;90.20
55836;DHT22;66908;50.988;4.780;2023-02-11T14:19:39;9.90;89.30
55836;DHT22;66908;50.988;4.780;2023-02-11T14:22:16;10.00;88.90
55836;DHT22;66908;50.988;4.780;2023-02-11T14:27:42;9.90;88.90
55836;DHT22;66908;50.988;4.780;2023-02-11T14:38:47;9.70;90.00
55836;DHT22;66908;50.988;4.780;2023-02-11T14:41:25;9.70;90.30
55836;DHT22;66908;50.988;4.780;2023-02-11T14:43:58;9.90;90.10
55836;DHT22;66908;50.988;4.780;2023-02-11T14:46:27;9.80;90.00
55836;DHT22;66908;50.988;4.780;2023-02-11T14:48:58;9.70;90.40
55836;DHT22;66908;50.988;4.780;2023-02-11T14:51:29;9.90;90.20
55836;DHT22;66908;50.988;4.780;2023-02-11T14:54:00;9.90;89.60
55836;DHT22;66908;50.988;4.780;2023-02-11T14:56:30;9.90;89.60
55836;DHT22;66908;50.988;4.780;2023-02-11T14:58:59;10.00;89.60
55836;DHT22;66908;50.988;4.780;2023-02-11T15:01:30;10.00;89.40
55836;DHT22;66908;50.988;4.780;2023-02-11T15:03:57;10.10;89.50
55836;DHT22;66908;50.988;4.780;2023-02-11T15:06:30;10.10;89.20
55836;DHT22;66908;50.988;4.780;2023-02-11T15:09:04;10.10;89.10
55836;DHT22;66908;50.988;4.780;2023-02-11T15:11:33;9.90;89.40
55836;DHT22;66908;50.988;4.780;2023-02-11T15:14:27;10.00;89.80
55836;DHT22;66908;50.988;4.780;2023-02-11T15:16:56;10.00;89.50
55836;DHT22;66908;50.988;4.780;2023-02-11T15:19:38;9.90;89.80
55836;DHT22;66908;50.988;4.780;2023-02-11T15:22:27;10.10;89.40
55836;DHT22;66908;50.988;4.780;2023-02-11T15:24:59;10.20;88.90
55836;DHT22;66908;50.988;4.780;2023-02-11T15:27:26;10.00;89.10
55836;DHT22;66908;50.988;4.780;2023-02-11T15:29:52;10.10;89.20
55836;DHT22;66908;50.988;4.780;2023-02-11T15:32:20;10.10;89.30
55836;DHT22;66908;50.988;4.780;2023-02-11T15:34:48;9.90;89.60
55836;DHT22;66908;50.988;4.780;2023-02-11T15:37:25;10.00;90.20
55836;DHT22;66908;50.988;4.780;2023-02-11T15:39:53;10.10;89.50
55836;DHT22;66908;50.988;4.780;2023-02-11T15:42:25;10.20;89.10
55836;DHT22;66908;50.988;4.780;2023-02-11T15:47:34;10.00;89.20
55836;DHT22;66908;50.988;4.780;2023-02-11T15:50:00;10.00;89.50
55836;DHT22;66908;50.988;4.780;2023-02-11T15:52:27;10.00;89.60
55836;DHT22;66908;50.988;4.780;2023-02-11T15:54:55;9.80;90.10
55836;DHT22;66908;50.988;4.780;2023-02-11T15:57:25;9.80;90.40
55836;DHT22;66908;50.988;4.780;2023-02-11T15:59:53;9.80;90.10
55836;DHT22;66908;50.988;4.780;2023-02-11T16:02:32;9.80;90.00
55836;DHT22;66908;50.988;4.780;2023-02-11T16:05:05;10.00;90.00
55836;DHT22;66908;50.988;4.780;2023-02-11T16:07:48;10.00;89.60
55836;DHT22;66908;50.988;4.780;2023-02-11T16:10:23;10.10;89.20
55836;DHT22;66908;50.988;4.780;2023-02-11T16:13:02;10.10;89.00
55836;DHT22;66908;50.988;4.780;2023-02-11T16:15:48;10.10;89.00
55836;DHT22;66908;50.988;4.780;2023-02-11T16:18:27;10.20;88.70
55836;DHT22;66908;50.988;4.780;2023-02-11T16:20:55;10.20;88.40
55836;DHT22;66908;50.988;4.780;2023-02-11T16:23:24;10.10;88.60
55836;DHT22;66908;50.988;4.780;2023-02-11T16:26:02;10.20;88.40
55836;DHT22;66908;50.988;4.780;2023-02-11T16:28:31;10.20;88.10
55836;DHT22;66908;50.988;4.780;2023-02-11T16:30:58;10.20;88.10
55836;DHT22;66908;50.988;4.780;2023-02-11T16:33:24;10.10;88.60
55836;DHT22;66908;50.988;4.780;2023-02-11T16:35:49;10.00;89.00
55836;DHT22;66908;50.988;4.780;2023-02-11T16:38:16;9.90;89.40
55836;DHT22;66908;50.988;4.780;2023-02-11T16:40:42;9.90;89.20
55836;DHT22;66908;50.988;4.780;2023-02-11T16:43:10;10.00;89.00
55836;DHT22;66908;50.988;4.780;2023-02-11T16:45:37;10.00;88.70
55836;DHT22;66908;50.988;4.780;2023-02-11T16:48:05;10.00;88.60
55836;DHT22;66908;50.988;4.780;2023-02-11T16:50:33;10.10;88.50
55836;DHT22;66908;50.988;4.780;2023-02-11T16:52:59;10.00;88.60
55836;DHT22;66908;50.988;4.780;2023-02-11T16:55:27;10.00;88.60
55836;DHT22;66908;50.988;4.780;2023-02-11T16:57:53;10.00;88.70
55836;DHT22;66908;50.988;4.780;2023-02-11T17:00:19;9.90;89.10
55836;DHT22;66908;50.988;4.780;2023-02-11T17:02:45;9.90;89.30
55836;DHT22;66908;50.988;4.780;2023-02-11T17:05:18;9.90;89.10
55836;DHT22;66908;50.988;4.780;2023-02-11T17:07:45;9.90;88.90
55836;DHT22;66908;50.988;4.780;2023-02-11T17:10:19;10.00;88.70
55836;DHT22;66908;50.988;4.780;2023-02-11T17:12:46;10.00;88.70
55836;DHT22;66908;50.988;4.780;2023-02-11T17:15:12;9.90;88.70
55836;DHT22;66908;50.988;4.780;2023-02-11T17:17:38;9.70;87.50
55836;DHT22;66908;50.988;4.780;2023-02-11T17:20:05;9.80;88.00
55836;DHT22;66908;50.988;4.780;2023-02-11T17:22:31;9.80;88.70
55836;DHT22;66908;50.988;4.780;2023-02-11T17:24:58;9.80;88.60
55836;DHT22;66908;50.988;4.780;2023-02-11T17:27:24;9.80;89.00
55836;DHT22;66908;50.988;4.780;2023-02-11T17:29:50;9.80;89.10
55836;DHT22;66908;50.988;4.780;2023-02-11T17:32:16;9.90;88.70
55836;DHT22;66908;50.988;4.780;2023-02-11T17:34:41;9.90;88.60
55836;DHT22;66908;50.988;4.780;2023-02-11T17:37:07;9.80;89.00
55836;DHT22;66908;50.988;4.780;2023-02-11T17:39:38;9.80;89.30
55836;DHT22;66908;50.988;4.780;2023-02-11T17:42:04;9.80;89.10
55836;DHT22;66908;50.988;4.780;2023-02-11T17:44:32;9.80;89.40
55836;DHT22;66908;50.988;4.780;2023-02-11T17:46:58;9.80;89.50
55836;DHT22;66908;50.988;4.780;2023-02-11T17:49:24;9.80;89.40
55836;DHT22;66908;50.988;4.780;2023-02-11T17:51:50;9.80;89.30
55836;DHT22;66908;50.988;4.780;2023-02-11T17:54:17;9.80;89.40
55836;DHT22;66908;50.988;4.780;2023-02-11T17:56:45;9.90;89.40
55836;DHT22;66908;50.988;4.780;2023-02-11T17:59:13;9.80;89.30
55836;DHT22;66908;50.988;4.780;2023-02-11T18:01:40;9.80;89.10
55836;DHT22;66908;50.988;4.780;2023-02-11T18:04:09;9.80;89.10
55836;DHT22;66908;50.988;4.780;2023-02-11T18:06:36;9.80;89.10
55836;DHT22;66908;50.988;4.780;2023-02-11T18:09:02;9.80;89.40
55836;DHT22;66908;50.988;4.780;2023-02-11T18:11:30;9.80;89.20
55836;DHT22;66908;50.988;4.780;2023-02-11T18:14:00;9.80;89.40
55836;DHT22;66908;50.988;4.780;2023-02-11T18:16:27;9.80;89.30
55836;DHT22;66908;50.988;4.780;2023-02-11T18:18:56;9.80;89.10
55836;DHT22;66908;50.988;4.780;2023-02-11T18:21:23;9.80;89.10